createdAt,value
2019-02-26T00:03:39.575Z,23.90
2019-02-26T00:07:49.031Z,27.27
2019-02-26T00:11:52.478Z,24.67
2019-02-26T00:15:57.777Z,24.70
2019-02-26T00:20:05.547Z,24.20
2019-02-26T00:24:12.337Z,26.10
2019-02-26T00:28:19.641Z,19.80
2019-02-26T00:32:24.669Z,24.00
2019-02-26T00:36:31.510Z,26.37
2019-02-26T00:40:39.307Z,23.17
2019-02-26T00:44:44.718Z,21.07
2019-02-26T00:48:50.271Z,24.30
2019-02-26T00:52:57.033Z,26.40
2019-02-26T00:57:03.464Z,22.57
2019-02-26T01:01:12.222Z,21.20
2019-02-26T01:05:17.819Z,22.60
2019-02-26T01:09:25.103Z,24.00
2019-02-26T01:13:32.193Z,25.03
2019-02-26T01:17:39.978Z,26.10
2019-02-26T01:21:45.292Z,24.33
2019-02-26T01:25:54.189Z,33.40
2019-02-26T01:29:58.593Z,29.63
2019-02-26T01:34:05.103Z,24.37
2019-02-26T01:38:12.596Z,27.93
2019-02-26T01:42:21.654Z,27.70
2019-02-26T01:46:24.941Z,26.07
2019-02-26T01:50:31.490Z,23.70
2019-02-26T01:54:39.504Z,25.77
2019-02-26T01:58:45.151Z,24.43
2019-02-26T02:02:55.829Z,26.03
2019-02-26T02:07:01.869Z,25.37
2019-02-26T02:11:10.460Z,23.70
2019-02-26T02:15:20.406Z,25.90
2019-02-26T02:19:25.694Z,22.77
2019-02-26T02:23:31.079Z,21.03
2019-02-26T02:27:36.628Z,24.70
2019-02-26T02:31:42.351Z,25.17
2019-02-26T02:35:47.814Z,23.90
2019-02-26T02:39:53.277Z,24.17
2019-02-26T02:43:58.824Z,29.23
2019-02-26T02:48:06.240Z,24.97
2019-02-26T02:52:11.979Z,24.63
2019-02-26T02:56:17.981Z,25.50
2019-02-26T03:00:25.991Z,30.70
2019-02-26T03:04:31.713Z,21.60
2019-02-26T03:08:39.438Z,29.63
2019-02-26T03:12:48.627Z,29.07
2019-02-26T03:16:53.496Z,21.40
2019-02-26T03:21:01.852Z,29.33
2019-02-26T03:25:07.329Z,24.47
2019-02-26T03:29:13.127Z,25.87
2019-02-26T03:33:18.613Z,30.13
2019-02-26T03:37:25.810Z,26.23
2019-02-26T03:41:31.543Z,26.13
2019-02-26T03:45:36.991Z,24.43
2019-02-26T03:50:17.560Z,25.17
2019-02-26T03:54:22.957Z,22.90
2019-02-26T03:58:28.509Z,24.97
2019-02-26T04:02:33.973Z,23.93
2019-02-26T04:06:41.140Z,27.93
2019-02-26T04:10:47.943Z,26.37
2019-02-26T04:14:54.142Z,30.67
2019-02-26T04:18:59.617Z,26.27
2019-02-26T04:23:05.364Z,28.63
2019-02-26T04:27:52.262Z,26.47
2019-02-26T04:32:56.526Z,27.43
2019-02-26T04:37:46.712Z,26.43
2019-02-26T04:42:47.281Z,25.33
2019-02-26T04:47:26.944Z,23.60
2019-02-26T04:51:34.294Z,23.60
2019-02-26T04:55:41.529Z,28.00
2019-02-26T04:59:47.512Z,31.00
2019-02-26T05:03:52.945Z,29.20
2019-02-26T05:07:58.714Z,30.83
2019-02-26T05:12:04.188Z,36.43
2019-02-26T05:16:15.523Z,28.20
2019-02-26T05:20:21.214Z,27.53
2019-02-26T05:24:26.935Z,26.17
2019-02-26T05:28:35.387Z,29.23
2019-02-26T05:32:39.605Z,28.07
2019-02-26T05:37:08.018Z,25.67
2019-02-26T05:41:13.024Z,27.67
2019-02-26T05:45:18.493Z,29.20
2019-02-26T05:49:24.109Z,29.23
2019-02-26T05:53:29.580Z,23.57
2019-02-26T05:57:35.011Z,31.73
2019-02-26T06:01:40.466Z,32.40
2019-02-26T06:05:49.107Z,27.60
2019-02-26T06:09:56.175Z,32.80
2019-02-26T06:14:06.433Z,27.97
2019-02-26T06:18:08.122Z,33.03
2019-02-26T06:22:17.198Z,26.77
2019-02-26T06:26:20.841Z,31.33
2019-02-26T06:30:26.289Z,39.30
2019-02-26T06:34:31.650Z,38.17
2019-02-26T06:38:37.106Z,37.47
2019-02-26T06:42:42.822Z,36.93
2019-02-26T06:46:48.199Z,34.03
2019-02-26T06:50:55.648Z,34.47
2019-02-26T06:55:03.092Z,35.57
2019-02-26T06:59:12.232Z,42.13
2019-02-26T07:03:17.847Z,35.07
2019-02-26T07:07:23.453Z,37.00
2019-02-26T07:11:31.466Z,45.23
2019-02-26T07:15:36.365Z,41.50
2019-02-26T07:19:41.775Z,37.30
2019-02-26T07:23:47.190Z,45.33
2019-02-26T07:27:53.625Z,45.37
2019-02-26T07:31:59.823Z,52.33
2019-02-26T07:36:05.218Z,52.03
2019-02-26T07:40:13.010Z,50.97
2019-02-26T07:44:18.658Z,50.20
2019-02-26T07:48:27.129Z,58.77
2019-02-26T07:52:33.092Z,52.80
2019-02-26T07:56:46.549Z,59.73
2019-02-26T08:00:52.324Z,57.33
2019-02-26T08:04:57.813Z,66.17
2019-02-26T08:09:07.085Z,84.23
2019-02-26T08:13:12.512Z,49.57
2019-02-26T08:17:17.972Z,33.63
2019-02-26T08:21:25.193Z,33.67
2019-02-26T08:25:30.688Z,29.87
2019-02-26T08:29:36.307Z,25.93
2019-02-26T08:33:41.725Z,28.07
2019-02-26T08:37:47.157Z,25.40
2019-02-26T08:42:11.391Z,19.80
2019-02-26T08:46:18.915Z,25.93
2019-02-26T08:50:28.498Z,24.60
2019-02-26T08:54:33.300Z,23.67
2019-02-26T08:58:41.132Z,20.60
2019-02-26T09:02:48.772Z,21.50
2019-02-26T09:06:54.702Z,19.90
2019-02-26T09:11:03.351Z,18.23
2019-02-26T09:15:11.110Z,20.27
2019-02-26T09:19:16.647Z,21.93
2019-02-26T09:23:23.542Z,20.07
2019-02-26T09:27:30.119Z,17.17
2019-02-26T09:31:36.521Z,15.97
2019-02-26T09:35:41.947Z,22.50
2019-02-26T09:39:47.435Z,15.50
2019-02-26T09:43:52.888Z,19.50
2019-02-26T09:47:58.417Z,18.83
2019-02-26T09:52:06.294Z,18.83
2019-02-26T09:56:11.248Z,17.67
2019-02-26T10:00:22.093Z,16.53
2019-02-26T10:04:26.533Z,14.43
2019-02-26T10:08:32.624Z,23.70
2019-02-26T10:12:39.330Z,19.63
2019-02-26T10:16:46.955Z,18.83
2019-02-26T10:20:54.367Z,19.87
2019-02-26T10:24:59.485Z,20.13
2019-02-26T10:29:07.916Z,13.30
2019-02-26T10:33:17.387Z,13.87
2019-02-26T10:37:21.786Z,16.87
2019-02-26T10:41:27.254Z,18.00
2019-02-26T10:45:36.218Z,21.77
2019-02-26T10:49:39.903Z,17.27
2019-02-26T10:53:45.402Z,13.87
2019-02-26T10:57:52.533Z,14.27
2019-02-26T11:02:00.433Z,14.33
2019-02-26T11:06:07.309Z,10.37
2019-02-26T11:10:14.678Z,12.97
2019-02-26T11:14:20.255Z,15.10
2019-02-26T11:18:25.934Z,15.73
2019-02-26T11:22:31.479Z,16.70
2019-02-26T11:26:38.340Z,16.67
2019-02-26T11:30:44.792Z,16.43
2019-02-26T11:34:52.806Z,30.77
2019-02-26T11:39:01.254Z,22.60
2019-02-26T11:43:11.602Z,22.30
2019-02-26T11:47:13.644Z,26.62
2019-02-26T11:51:20.243Z,24.67
2019-02-26T11:55:28.610Z,20.57
2019-02-26T11:59:33.827Z,19.57
2019-02-26T12:03:41.631Z,19.80
2019-02-26T12:07:48.814Z,20.00
2019-02-26T12:11:56.049Z,19.57
2019-02-26T12:16:02.021Z,18.45
2019-02-26T12:20:09.859Z,19.57
2019-02-26T12:24:15.424Z,19.80
2019-02-26T12:28:20.863Z,18.48
2019-02-26T12:32:27.527Z,22.65
2019-02-26T12:36:35.383Z,21.48
2019-02-26T12:40:43.938Z,22.87
2019-02-26T12:44:47.702Z,24.95
2019-02-26T12:48:53.092Z,21.37
2019-02-26T12:52:58.810Z,21.93
2019-02-26T12:57:04.409Z,32.60
2019-02-26T13:01:10.010Z,21.48
2019-02-26T13:05:18.959Z,21.57
2019-02-26T13:09:26.630Z,21.10
2019-02-26T13:13:31.604Z,21.33
2019-02-26T13:17:37.144Z,21.27
2019-02-26T13:21:43.490Z,25.02
2019-02-26T13:25:48.994Z,19.07
2019-02-26T13:29:57.142Z,22.77
2019-02-26T13:34:01.918Z,19.55
2019-02-26T13:38:07.374Z,16.82
2019-02-26T13:42:14.068Z,17.95
2019-02-26T13:46:20.252Z,18.73
2019-02-26T13:50:28.168Z,20.62
2019-02-26T13:54:33.621Z,17.42
2019-02-26T13:58:39.098Z,21.60
2019-02-26T14:02:44.536Z,18.00
2019-02-26T14:06:54.483Z,15.93
2019-02-26T14:10:59.933Z,18.50
2019-02-26T14:15:05.602Z,16.80
2019-02-26T14:19:11.062Z,18.48
2019-02-26T14:23:16.804Z,18.40
2019-02-26T14:27:22.869Z,14.23
2019-02-26T14:31:28.222Z,15.83
2019-02-26T14:35:34.061Z,16.25
2019-02-26T14:39:40.138Z,19.07
2019-02-26T14:43:45.887Z,15.93
2019-02-26T14:47:51.327Z,17.20
2019-02-26T14:51:57.121Z,18.80
2019-02-26T14:56:02.508Z,16.73
2019-02-26T15:00:13.578Z,19.02
2019-02-26T15:04:19.016Z,19.62
2019-02-26T15:08:24.491Z,23.38
2019-02-26T15:12:30.329Z,24.23
2019-02-26T15:16:35.821Z,25.02
2019-02-26T15:20:41.267Z,20.60
2019-02-26T15:24:46.903Z,23.98
2019-02-26T15:28:52.384Z,22.25
2019-02-26T15:32:57.891Z,22.13
2019-02-26T15:37:03.796Z,20.30
2019-02-26T15:41:09.332Z,17.27
2019-02-26T15:45:23.919Z,18.90
2019-02-26T15:49:29.444Z,16.85
2019-02-26T15:53:34.908Z,18.07
2019-02-26T15:57:40.390Z,16.87
2019-02-26T16:01:46.072Z,23.57
2019-02-26T16:05:51.629Z,14.00
2019-02-26T16:09:57.532Z,17.30
2019-02-26T16:14:03.177Z,21.65
2019-02-26T16:18:08.867Z,19.35
2019-02-26T16:22:14.444Z,20.05
2019-02-26T16:26:19.946Z,17.77
2019-02-26T16:30:25.579Z,17.95
2019-02-26T16:34:31.640Z,16.93
2019-02-26T16:38:37.092Z,17.92
2019-02-26T16:42:44.531Z,17.92
2019-02-26T16:46:49.878Z,13.60
2019-02-26T16:50:55.201Z,18.32
2019-02-26T16:55:00.679Z,16.10
2019-02-26T16:59:07.779Z,15.05
2019-02-26T17:03:13.417Z,18.40
2019-02-26T17:07:19.174Z,21.55
2019-02-26T17:11:24.783Z,16.37
2019-02-26T17:15:30.593Z,19.00
2019-02-26T17:19:36.169Z,24.77
2019-02-26T17:23:41.681Z,16.17
2019-02-26T17:27:47.153Z,21.93
2019-02-26T17:31:52.653Z,20.10
2019-02-26T17:35:59.520Z,25.45
2019-02-26T17:40:05.698Z,21.73
2019-02-26T17:44:11.616Z,21.90
2019-02-26T17:48:17.073Z,18.12
2019-02-26T17:52:22.633Z,21.25
2019-02-26T17:56:28.107Z,20.65
2019-02-26T18:00:36.515Z,17.20
2019-02-26T18:04:42.238Z,16.10
2019-02-26T18:08:47.866Z,19.02
2019-02-26T18:12:54.122Z,21.27
2019-02-26T18:16:59.799Z,16.60
2019-02-26T18:21:05.970Z,22.40
2019-02-26T18:25:13.334Z,19.67
2019-02-26T18:29:18.850Z,17.90
2019-02-26T18:33:24.510Z,25.97
2019-02-26T18:37:30.075Z,24.53
2019-02-26T18:41:35.763Z,17.77
2019-02-26T18:45:41.592Z,19.63
2019-02-26T18:49:48.551Z,21.33
2019-02-26T18:53:56.391Z,19.60
2019-02-26T18:58:02.604Z,18.13
2019-02-26T19:02:08.872Z,34.60
2019-02-26T19:06:27.010Z,23.63
2019-02-26T19:10:30.033Z,22.73
2019-02-26T19:14:36.585Z,23.53
2019-02-26T19:18:42.824Z,20.73
2019-02-26T19:22:51.920Z,23.70
2019-02-26T19:26:58.358Z,19.90
2019-02-26T19:35:34.780Z,21.47
2019-02-26T19:39:39.491Z,23.47
2019-02-26T19:43:45.724Z,23.27
2019-02-26T19:48:09.853Z,20.63
2019-02-26T19:52:20.468Z,22.10
2019-02-26T19:56:38.636Z,18.47
2019-02-26T20:00:46.697Z,22.27
2019-02-26T20:04:53.087Z,28.30
2019-02-26T20:09:59.990Z,26.63
2019-02-26T20:14:11.398Z,26.13
2019-02-26T20:18:20.635Z,22.63
2019-02-26T20:22:25.388Z,23.80
2019-02-26T20:26:32.611Z,20.43
2019-02-26T20:30:48.396Z,17.87
2019-02-26T20:34:56.608Z,19.67
2019-02-26T20:39:07.654Z,22.97
2019-02-26T20:43:13.018Z,21.30
2019-02-26T20:47:18.988Z,22.83
2019-02-26T20:51:27.711Z,27.30
2019-02-26T20:55:35.353Z,17.47
2019-02-26T20:59:41.295Z,24.27
2019-02-26T21:03:47.896Z,22.93
2019-02-26T21:07:58.070Z,21.43
2019-02-26T21:12:02.093Z,27.17
2019-02-26T21:16:09.105Z,22.63
2019-02-26T21:20:16.349Z,25.63
2019-02-26T21:24:24.501Z,22.30
2019-02-26T21:28:33.325Z,28.70
2019-02-26T21:32:51.832Z,26.43
2019-02-26T21:37:00.082Z,26.60
2019-02-26T21:41:09.199Z,23.83
2019-02-26T21:45:49.052Z,25.43
2019-02-26T21:49:52.686Z,25.30
2019-02-26T21:54:01.649Z,26.90
2019-02-26T21:58:08.375Z,25.33
2019-02-26T22:02:18.609Z,19.47
2019-02-26T22:06:23.160Z,23.17
2019-02-26T22:10:29.304Z,28.47
2019-02-26T22:14:36.929Z,23.80
2019-02-26T22:18:44.293Z,23.17
2019-02-26T22:22:50.777Z,25.50
2019-02-26T22:26:59.605Z,23.47
2019-02-26T22:31:04.754Z,27.67
2019-02-26T22:35:13.080Z,29.77
2019-02-26T22:39:22.294Z,28.37
2019-02-26T22:43:48.146Z,25.97
2019-02-26T22:47:58.123Z,28.10
2019-02-26T22:52:24.669Z,28.77
2019-02-26T22:56:33.302Z,37.97
2019-02-26T23:01:30.551Z,36.40
2019-02-26T23:05:32.754Z,31.60
2019-02-26T23:09:39.320Z,36.17
2019-02-26T23:13:45.578Z,32.50
2019-02-26T23:17:58.151Z,32.40
2019-02-26T23:22:03.632Z,30.17
2019-02-26T23:26:10.139Z,28.17
2019-02-26T23:30:16.411Z,26.57
2019-02-26T23:34:22.776Z,27.53
2019-02-26T23:38:28.829Z,25.70
2019-02-26T23:42:38.596Z,30.97
2019-02-26T23:46:42.544Z,28.77
2019-02-26T23:50:48.544Z,25.20
2019-02-26T23:54:54.888Z,32.43
2019-02-26T23:59:01.701Z,25.53
